createdAt,value
2022-12-05T00:01:14.041Z,101247.41
2022-12-05T00:03:41.499Z,101248.72
2022-12-05T00:06:09.007Z,101250.19
2022-12-05T00:08:36.461Z,101238.69
2022-12-05T00:11:03.907Z,101237.94
2022-12-05T00:13:33.528Z,101242.69
2022-12-05T00:16:02.220Z,101240.00
2022-12-05T00:18:29.633Z,101248.34
2022-12-05T00:20:57.074Z,101249.06
2022-12-05T00:23:24.479Z,101244.97
2022-12-05T00:25:51.887Z,101243.88
2022-12-05T00:28:19.328Z,101254.63
2022-12-05T00:30:46.743Z,101252.09
2022-12-05T00:33:15.669Z,101250.16
2022-12-05T00:35:43.093Z,101257.19
2022-12-05T00:38:10.509Z,101253.81
2022-12-05T00:40:37.985Z,101254.75
2022-12-05T00:43:05.395Z,101258.41
2022-12-05T00:45:32.984Z,101253.81
2022-12-05T00:48:00.461Z,101264.22
2022-12-05T00:50:29.170Z,101259.97
2022-12-05T00:52:56.617Z,101260.09
2022-12-05T00:55:24.033Z,101264.09
2022-12-05T00:57:51.451Z,101253.31
2022-12-05T01:00:19.797Z,101259.59
2022-12-05T01:02:47.244Z,101250.31
2022-12-05T01:05:14.912Z,101253.19
2022-12-05T01:07:43.755Z,101241.84
2022-12-05T01:10:11.368Z,101246.31
2022-12-05T01:12:38.797Z,101243.53
2022-12-05T01:15:07.217Z,101252.72
2022-12-05T01:17:35.822Z,101242.69
2022-12-05T01:20:03.269Z,101245.22
2022-12-05T01:22:30.680Z,101247.16
2022-12-05T01:24:59.536Z,101241.59
2022-12-05T01:27:27.016Z,101248.72
2022-12-05T01:29:54.671Z,101242.31
2022-12-05T01:32:22.303Z,101244.81
2022-12-05T01:34:49.736Z,101240.09
2022-12-05T01:37:17.151Z,101231.16
2022-12-05T01:39:44.952Z,101239.72
2022-12-05T01:42:13.775Z,101239.84
2022-12-05T01:45:06.127Z,101235.47
2022-12-05T01:47:33.967Z,101241.91
2022-12-05T01:50:01.399Z,101231.25
2022-12-05T01:52:29.442Z,101233.81
2022-12-05T01:54:58.215Z,101230.28
2022-12-05T01:57:26.938Z,101232.94
2022-12-05T01:59:56.331Z,101227.03
2022-12-05T02:02:24.050Z,101226.78
2022-12-05T02:04:53.947Z,101236.47
2022-12-05T02:07:21.714Z,101230.28
2022-12-05T02:09:49.140Z,101229.56
2022-12-05T02:12:16.547Z,101225.69
2022-12-05T02:14:47.816Z,101227.63
2022-12-05T02:17:17.766Z,101231.03
2022-12-05T02:20:01.062Z,101229.44
2022-12-05T02:22:54.645Z,101231.03
2022-12-05T02:25:47.563Z,101222.75
2022-12-05T02:28:34.635Z,101234.41
2022-12-05T02:31:05.769Z,101228.19
2022-12-05T02:33:35.393Z,101231.03
2022-12-05T02:36:04.745Z,101225.41
2022-12-05T02:38:33.439Z,101225.81
2022-12-05T02:41:04.975Z,101221.91
2022-12-05T02:43:33.685Z,101216.72
2022-12-05T02:46:04.591Z,101217.44
2022-12-05T02:48:32.047Z,101215.03
2022-12-05T02:50:59.684Z,101215.88
2022-12-05T02:53:27.092Z,101216.47
2022-12-05T02:55:54.598Z,101205.94
2022-12-05T02:58:23.912Z,101214.88
2022-12-05T03:00:56.273Z,101210.69
2022-12-05T03:03:24.990Z,101210.44
2022-12-05T03:05:54.993Z,101200.63
2022-12-05T03:08:23.865Z,101203.28
2022-12-05T03:10:51.282Z,101207.78
2022-12-05T03:13:20.394Z,101201.34
2022-12-05T03:15:48.827Z,101209.19
2022-12-05T03:18:17.587Z,101211.28
2022-12-05T03:20:48.625Z,101207.78
2022-12-05T03:23:17.204Z,101208.47
2022-12-05T03:25:49.180Z,101207.78
2022-12-05T03:28:19.469Z,101212.97
2022-12-05T03:30:46.935Z,101207.78
2022-12-05T03:33:15.496Z,101215.50
2022-12-05T03:35:44.640Z,101208.59
2022-12-05T03:38:14.398Z,101207.53
2022-12-05T03:40:43.471Z,101205.81
2022-12-05T03:43:12.494Z,101209.44
2022-12-05T03:45:44.266Z,101204.97
2022-12-05T03:48:14.773Z,101213.81
2022-12-05T03:50:43.266Z,101202.19
2022-12-05T03:53:21.073Z,101206.66
2022-12-05T03:55:51.962Z,101205.69
2022-12-05T03:58:21.403Z,101205.81
2022-12-05T04:00:48.825Z,101203.63
2022-12-05T04:03:17.787Z,101209.06
2022-12-05T04:05:46.948Z,101204.13
2022-12-05T04:08:18.535Z,101208.38
2022-12-05T04:10:50.474Z,101203.88
2022-12-05T04:13:18.594Z,101206.66
2022-12-05T04:16:01.267Z,101217.91
2022-12-05T04:18:28.708Z,101208.38
2022-12-05T04:21:13.950Z,101202.03
2022-12-05T04:23:47.703Z,101203.28
2022-12-05T04:26:18.336Z,101200.75
2022-12-05T04:28:48.834Z,101204.13
2022-12-05T04:31:17.767Z,101200.50
2022-12-05T04:33:45.793Z,101204.25
2022-12-05T04:36:14.208Z,101200.75
2022-12-05T04:38:45.034Z,101204.97
2022-12-05T04:41:14.431Z,101207.06
2022-12-05T04:43:42.200Z,101205.22
2022-12-05T04:46:11.316Z,101201.44
2022-12-05T04:48:39.699Z,101201.72
2022-12-05T04:51:07.635Z,101207.78
2022-12-05T04:53:35.114Z,101204.97
2022-12-05T04:56:03.982Z,101211.38
2022-12-05T04:58:31.384Z,101202.19
2022-12-05T05:01:00.500Z,101206.91
2022-12-05T05:03:29.959Z,101200.50
2022-12-05T05:05:57.427Z,101203.16
2022-12-05T05:08:25.701Z,101205.81
2022-12-05T05:10:58.224Z,101210.31
2022-12-05T05:13:27.171Z,101204.13
2022-12-05T05:15:54.605Z,101208.38
2022-12-05T05:18:22.078Z,101199.53
2022-12-05T05:20:49.491Z,101205.81
2022-12-05T05:23:16.910Z,101204.13
2022-12-05T05:25:44.303Z,101207.53
2022-12-05T05:28:11.737Z,101204.00
2022-12-05T05:30:40.434Z,101204.88
2022-12-05T05:33:07.838Z,101211.97
2022-12-05T05:35:36.844Z,101206.66
2022-12-05T05:38:04.262Z,101208.25
2022-12-05T05:40:31.691Z,101200.13
2022-12-05T05:42:59.111Z,101204.88
2022-12-05T05:45:26.543Z,101208.94
2022-12-05T05:47:55.259Z,101210.91
2022-12-05T05:50:22.667Z,101216.13
2022-12-05T05:52:50.107Z,101206.72
2022-12-05T05:55:17.871Z,101208.91
2022-12-05T05:57:45.291Z,101211.69
2022-12-05T06:00:13.769Z,101210.44
2022-12-05T06:02:41.377Z,101213.59
2022-12-05T06:05:10.339Z,101216.38
2022-12-05T06:07:37.805Z,101213.22
2022-12-05T06:10:06.177Z,101218.84
2022-12-05T06:12:37.889Z,101216.28
2022-12-05T06:15:10.377Z,101218.22
2022-12-05T06:17:38.193Z,101218.22
2022-12-05T06:20:06.760Z,101220.28
2022-12-05T06:22:35.549Z,101221.84
2022-12-05T06:25:02.951Z,101216.78
2022-12-05T06:27:30.714Z,101220.41
2022-12-05T06:29:58.420Z,101220.56
2022-12-05T06:32:26.082Z,101225.72
2022-12-05T06:34:53.504Z,101224.75
2022-12-05T06:37:20.910Z,101228.19
2022-12-05T06:39:49.620Z,101231.34
2022-12-05T06:42:18.905Z,101230.63
2022-12-05T06:44:46.329Z,101235.94
2022-12-05T06:47:13.757Z,101239.72
2022-12-05T06:49:41.153Z,101245.03
2022-12-05T06:52:08.572Z,101246.00
2022-12-05T06:54:36.088Z,101248.66
2022-12-05T06:57:04.913Z,101245.53
2022-12-05T06:59:32.306Z,101240.91
2022-12-05T07:01:58.807Z,101250.13
2022-12-05T07:04:26.331Z,101248.06
2022-12-05T07:06:54.403Z,101245.41
2022-12-05T07:09:22.954Z,101252.63
2022-12-05T07:11:50.703Z,101247.94
2022-12-05T07:14:45.438Z,101256.88
2022-12-05T07:17:06.844Z,101261.50
2022-12-05T07:19:34.267Z,101265.84
2022-12-05T07:22:01.699Z,101263.28
2022-12-05T07:24:29.105Z,101259.31
2022-12-05T07:26:56.533Z,101267.78
2022-12-05T07:29:25.232Z,101260.78
2022-12-05T07:31:53.624Z,101261.63
2022-12-05T07:34:21.069Z,101259.91
2022-12-05T07:36:48.478Z,101260.78
2022-12-05T07:39:16.159Z,101259.91
2022-12-05T07:41:43.611Z,101260.78
2022-12-05T07:44:16.020Z,101267.06
2022-12-05T07:46:44.722Z,101262.56
2022-12-05T07:49:12.133Z,101263.44
2022-12-05T07:51:39.565Z,101257.66
2022-12-05T07:54:07.196Z,101256.66
2022-12-05T07:56:34.622Z,101254.00
2022-12-05T07:59:02.052Z,101255.69
2022-12-05T08:01:30.117Z,101259.31
2022-12-05T08:03:59.573Z,101261.03
2022-12-05T08:06:28.138Z,101278.78
2022-12-05T08:08:55.557Z,101266.34
2022-12-05T08:11:23.810Z,101275.06
2022-12-05T08:13:51.388Z,101263.69
2022-12-05T08:16:19.661Z,101263.81
2022-12-05T08:18:47.210Z,101267.19
2022-12-05T08:21:16.572Z,101262.97
2022-12-05T08:23:44.626Z,101269.13
2022-12-05T08:26:13.168Z,101267.31
2022-12-05T08:28:40.611Z,101261.25
2022-12-05T08:31:08.983Z,101269.03
2022-12-05T08:33:36.541Z,101271.44
2022-12-05T08:36:04.135Z,101276.00
2022-12-05T08:38:33.001Z,101270.69
2022-12-05T08:41:01.496Z,101264.28
2022-12-05T08:43:28.899Z,101265.38
2022-12-05T08:45:56.460Z,101263.56
2022-12-05T08:48:29.240Z,101264.41
2022-12-05T08:50:57.182Z,101262.69
2022-12-05T08:53:24.600Z,101264.66
2022-12-05T08:55:53.275Z,101264.75
2022-12-05T08:58:20.693Z,101270.69
2022-12-05T09:00:48.105Z,101266.34
2022-12-05T09:03:15.516Z,101268.41
2022-12-05T09:05:42.915Z,101266.34
2022-12-05T09:08:10.403Z,101269.25
2022-12-05T09:10:38.320Z,101264.28
2022-12-05T09:13:07.039Z,101265.16
2022-12-05T09:15:34.477Z,101271.31
2022-12-05T09:18:02.023Z,101269.91
2022-12-05T09:20:29.458Z,101265.66
2022-12-05T09:22:56.866Z,101274.63
2022-12-05T09:25:24.269Z,101273.16
2022-12-05T09:27:51.671Z,101271.34
2022-12-05T09:30:20.611Z,101268.69
2022-12-05T09:32:48.026Z,101265.16
2022-12-05T09:35:15.569Z,101265.91
2022-12-05T09:37:43.004Z,101267.00
2022-12-05T09:40:15.587Z,101267.81
2022-12-05T09:42:48.532Z,101266.16
2022-12-05T09:45:21.470Z,101265.16
2022-12-05T09:47:52.799Z,101267.97
2022-12-05T09:50:22.010Z,101264.94
2022-12-05T09:53:19.190Z,101262.38
2022-12-05T09:55:48.257Z,101270.50
2022-12-05T09:58:26.069Z,101271.34
2022-12-05T10:00:59.314Z,101268.56
2022-12-05T10:03:29.521Z,101264.34
2022-12-05T10:06:03.108Z,101254.53
2022-12-05T10:08:32.568Z,101259.84
2022-12-05T10:11:01.610Z,101257.19
2022-12-05T10:13:36.611Z,101250.19
2022-12-05T10:16:10.354Z,101258.16
2022-12-05T10:18:40.331Z,101258.16
2022-12-05T10:21:13.170Z,101251.03
2022-12-05T10:24:00.268Z,101250.06
2022-12-05T10:26:30.611Z,101247.53
2022-12-05T10:29:00.809Z,101243.88
2022-12-05T10:31:32.965Z,101241.69
2022-12-05T10:34:04.421Z,101243.63
2022-12-05T10:36:31.894Z,101244.34
2022-12-05T10:38:59.891Z,101245.94
2022-12-05T10:41:28.547Z,101248.84
2022-12-05T10:43:55.945Z,101244.97
2022-12-05T10:46:23.408Z,101247.00
2022-12-05T10:48:52.182Z,101248.84
2022-12-05T10:51:22.083Z,101240.84
2022-12-05T10:53:50.775Z,101239.19
2022-12-05T10:56:40.919Z,101243.63
2022-12-05T10:59:08.862Z,101241.97
2022-12-05T11:01:37.725Z,101243.28
2022-12-05T11:04:13.892Z,101244.34
2022-12-05T11:06:41.435Z,101237.22
2022-12-05T11:09:14.850Z,101238.66
2022-12-05T11:11:42.254Z,101237.22
2022-12-05T11:14:22.521Z,101230.91
2022-12-05T11:16:53.219Z,101239.50
2022-12-05T11:19:26.170Z,101241.31
2022-12-05T11:21:53.678Z,101239.78
2022-12-05T11:24:22.495Z,101234.69
2022-12-05T11:26:50.652Z,101239.03
2022-12-05T11:29:34.519Z,101237.84
2022-12-05T11:32:02.816Z,101241.69
2022-12-05T11:34:34.227Z,101242.56
2022-12-05T11:37:03.875Z,101242.16
2022-12-05T11:39:31.295Z,101237.84
2022-12-05T11:42:14.753Z,101235.88
2022-12-05T11:44:53.157Z,101237.84
2022-12-05T11:47:23.997Z,101231.53
2022-12-05T11:50:03.101Z,101228.84
2022-12-05T11:52:40.460Z,101224.41
2022-12-05T11:55:14.711Z,101220.63
2022-12-05T11:57:52.684Z,101219.91
2022-12-05T12:00:23.546Z,101228.84
2022-12-05T12:03:10.809Z,101221.03
2022-12-05T12:05:40.157Z,101225.25
2022-12-05T12:08:12.185Z,101220.75
2022-12-05T12:10:44.237Z,101215.44
2022-12-05T12:13:21.588Z,101214.09
2022-12-05T12:15:54.403Z,101221.09
2022-12-05T12:18:31.849Z,101220.25
2022-12-05T12:21:05.593Z,101217.22
2022-12-05T12:23:40.095Z,101225.22
2022-12-05T12:26:10.609Z,101218.69
2022-12-05T12:28:42.583Z,101219.28
2022-12-05T12:31:20.838Z,101212.28
2022-12-05T12:33:51.212Z,101216.78
2022-12-05T12:36:22.826Z,101214.09
2022-12-05T12:39:00.344Z,101213.00
2022-12-05T12:41:38.148Z,101216.50
2022-12-05T12:44:09.429Z,101205.00
2022-12-05T12:46:41.948Z,101205.00
2022-12-05T12:49:16.572Z,101197.38
2022-12-05T12:51:49.898Z,101193.75
2022-12-05T12:54:54.670Z,101196.31
2022-12-05T12:57:22.087Z,101193.53
2022-12-05T12:59:58.637Z,101191.31
2022-12-05T13:02:27.851Z,101189.38
2022-12-05T13:04:56.078Z,101185.13
2022-12-05T13:07:27.280Z,101184.53
2022-12-05T13:09:56.735Z,101184.06
2022-12-05T13:12:26.243Z,101187.66
2022-12-05T13:14:54.734Z,101188.41
2022-12-05T13:17:22.254Z,101190.09
2022-12-05T13:19:50.331Z,101191.06
2022-12-05T13:22:17.875Z,101191.06
2022-12-05T13:24:46.573Z,101190.81
2022-12-05T13:27:16.409Z,101188.66
2022-12-05T13:29:44.521Z,101190.09
2022-12-05T13:32:26.151Z,101192.50
2022-12-05T13:34:53.610Z,101188.00
2022-12-05T13:37:40.471Z,101188.13
2022-12-05T13:40:37.902Z,101191.06
2022-12-05T13:43:05.350Z,101195.28
2022-12-05T13:45:32.808Z,101197.13
2022-12-05T13:48:07.846Z,101193.88
2022-12-05T13:50:37.040Z,101194.81
2022-12-05T13:53:05.480Z,101193.75
2022-12-05T13:55:36.432Z,101195.66
2022-12-05T13:58:04.917Z,101200.75
2022-12-05T14:00:33.829Z,101198.31
2022-12-05T14:03:04.767Z,101193.88
2022-12-05T14:05:43.100Z,101188.66
2022-12-05T14:08:46.970Z,101198.19
2022-12-05T14:11:15.673Z,101195.78
2022-12-05T14:13:45.041Z,101197.38
2022-12-05T14:16:45.547Z,101198.44
2022-12-05T14:19:34.993Z,101206.19
2022-12-05T14:22:08.075Z,101205.34
2022-12-05T14:24:37.990Z,101204.41
2022-12-05T14:27:08.796Z,101197.13
2022-12-05T14:29:40.500Z,101191.78
2022-12-05T14:32:15.460Z,101191.19
2022-12-05T14:34:50.362Z,101197.13
2022-12-05T14:37:25.046Z,101198.78
2022-12-05T14:39:52.902Z,101198.06
2022-12-05T14:42:24.946Z,101188.25
2022-12-05T14:44:53.346Z,101194.34
2022-12-05T14:47:22.451Z,101192.03
2022-12-05T14:49:54.681Z,101193.47
2022-12-05T14:52:23.202Z,101191.78
2022-12-05T14:54:51.834Z,101187.06
2022-12-05T14:57:19.240Z,101198.66
2022-12-05T14:59:51.349Z,101192.03
2022-12-05T15:02:21.435Z,101191.53
2022-12-05T15:04:51.851Z,101184.75
2022-12-05T15:07:20.059Z,101193.34
2022-12-05T15:09:56.453Z,101188.88
2022-12-05T15:12:25.067Z,101187.91
2022-12-05T15:14:58.626Z,101190.56
2022-12-05T15:17:27.849Z,101194.22
2022-12-05T15:19:58.330Z,101187.19
2022-12-05T15:22:26.605Z,101192.50
2022-12-05T15:24:54.037Z,101197.59
2022-12-05T15:27:22.083Z,101198.41
2022-12-05T15:29:49.487Z,101200.13
2022-12-05T15:32:20.609Z,101202.50
2022-12-05T15:34:49.379Z,101213.16
2022-12-05T15:37:17.954Z,101205.06
2022-12-05T15:39:53.699Z,101211.38
2022-12-05T15:42:30.014Z,101215.13
2022-12-05T15:45:12.863Z,101217.53
2022-12-05T15:47:41.805Z,101219.34
2022-12-05T15:50:13.449Z,101212.31
2022-12-05T15:52:42.753Z,101209.53
2022-12-05T15:55:15.111Z,101213.16
2022-12-05T15:57:44.180Z,101209.66
2022-12-05T16:00:15.772Z,101217.66
2022-12-05T16:02:45.659Z,101217.16
2022-12-05T16:05:20.987Z,101210.91
2022-12-05T16:07:48.978Z,101220.31
2022-12-05T16:10:16.869Z,101214.28
2022-12-05T16:12:44.282Z,101210.78
2022-12-05T16:15:13.471Z,101212.31
2022-12-05T16:17:42.960Z,101210.66
2022-12-05T16:20:13.851Z,101210.78
2022-12-05T16:22:44.461Z,101215.97
2022-12-05T16:25:13.844Z,101209.66
2022-12-05T16:27:41.530Z,101210.13
2022-12-05T16:30:11.254Z,101210.84
2022-12-05T16:32:38.693Z,101212.31
2022-12-05T16:35:21.274Z,101215.69
2022-12-05T16:37:49.993Z,101213.78
2022-12-05T16:40:22.092Z,101214.16
2022-12-05T16:43:01.831Z,101201.81
2022-12-05T16:45:38.799Z,101207.00
2022-12-05T16:48:20.750Z,101202.50
2022-12-05T16:50:48.248Z,101194.53
2022-12-05T16:53:30.626Z,101200.13
2022-12-05T16:55:58.558Z,101196.59
2022-12-05T16:58:26.651Z,101203.63
2022-12-05T17:00:57.383Z,101198.53
2022-12-05T17:03:40.113Z,101200.13
2022-12-05T17:06:07.630Z,101204.47
2022-12-05T17:08:36.348Z,101206.53
2022-12-05T17:11:03.916Z,101197.72
2022-12-05T17:13:31.468Z,101204.59
2022-12-05T17:15:58.925Z,101198.19
2022-12-05T17:18:31.257Z,101197.34
2022-12-05T17:20:59.301Z,101196.47
2022-12-05T17:23:26.700Z,101200.00
2022-12-05T17:25:55.859Z,101202.78
2022-12-05T17:28:23.342Z,101196.59
2022-12-05T17:30:50.748Z,101202.03
2022-12-05T17:33:18.984Z,101198.41
2022-12-05T17:35:46.852Z,101199.38
2022-12-05T17:38:14.432Z,101191.28
2022-12-05T17:40:41.878Z,101188.34
2022-12-05T17:43:12.049Z,101198.53
2022-12-05T17:45:39.462Z,101203.75
2022-12-05T17:48:07.038Z,101201.91
2022-12-05T17:50:34.510Z,101194.94
2022-12-05T17:53:07.174Z,101201.91
2022-12-05T17:55:34.994Z,101200.25
2022-12-05T17:58:02.397Z,101203.63
2022-12-05T18:00:31.174Z,101199.13
2022-12-05T18:02:58.722Z,101200.13
2022-12-05T18:05:26.150Z,101203.63
2022-12-05T18:07:53.620Z,101196.34
2022-12-05T18:10:23.278Z,101197.59
2022-12-05T18:12:51.039Z,101200.13
2022-12-05T18:15:18.525Z,101201.69
2022-12-05T18:17:47.248Z,101200.00
2022-12-05T18:20:15.416Z,101199.13
2022-12-05T18:22:43.203Z,101199.13
2022-12-05T18:25:11.227Z,101192.38
2022-12-05T18:27:38.974Z,101198.41
2022-12-05T18:30:07.975Z,101200.25
2022-12-05T18:32:36.508Z,101208.13
2022-12-05T18:35:11.335Z,101204.72
2022-12-05T18:37:40.231Z,101200.03
2022-12-05T18:40:08.679Z,101197.38
2022-12-05T18:42:36.085Z,101199.94
2022-12-05T18:45:03.718Z,101201.75
2022-12-05T18:47:31.189Z,101203.06
2022-12-05T18:49:58.905Z,101196.19
2022-12-05T18:52:27.614Z,101198.97
2022-12-05T18:55:15.858Z,101194.59
2022-12-05T18:57:43.026Z,101192.22
2022-12-05T19:00:11.620Z,101193.53
2022-12-05T19:02:39.096Z,101199.81
2022-12-05T19:05:06.972Z,101199.22
2022-12-05T19:07:35.931Z,101199.53
2022-12-05T19:10:05.568Z,101201.44
2022-12-05T19:12:33.049Z,101206.50
2022-12-05T19:15:00.974Z,101207.47
2022-12-05T19:17:28.612Z,101210.84
2022-12-05T19:19:57.191Z,101211.72
2022-12-05T19:22:27.080Z,101208.91
2022-12-05T19:24:55.807Z,101207.34
2022-12-05T19:27:23.226Z,101215.22
2022-12-05T19:29:50.625Z,101215.22
2022-12-05T19:32:18.040Z,101212.53
2022-12-05T19:34:46.424Z,101217.41
2022-12-05T19:37:13.844Z,101213.50
2022-12-05T19:39:42.801Z,101223.44
2022-12-05T19:42:11.610Z,101218.25
2022-12-05T19:44:39.017Z,101219.13
2022-12-05T19:47:06.447Z,101224.94
2022-12-05T19:49:33.841Z,101233.44
2022-12-05T19:52:02.549Z,101232.84
2022-12-05T19:54:30.008Z,101237.31
2022-12-05T19:57:00.447Z,101238.19
2022-12-05T19:59:29.161Z,101230.91
2022-12-05T20:01:56.697Z,101239.97
2022-12-05T20:04:24.248Z,101239.25
2022-12-05T20:06:51.706Z,101238.13
2022-12-05T20:09:20.041Z,101240.94
2022-12-05T20:11:54.138Z,101234.66
2022-12-05T20:14:22.832Z,101246.13
2022-12-05T20:16:51.630Z,101241.03
2022-12-05T20:19:19.117Z,101237.44
2022-12-05T20:21:46.516Z,101237.31
2022-12-05T20:24:13.933Z,101234.66
2022-12-05T20:26:42.561Z,101236.34
2022-12-05T20:29:09.967Z,101229.44
2022-12-05T20:31:38.044Z,101227.63
2022-12-05T20:34:06.965Z,101223.16
2022-12-05T20:36:35.234Z,101226.78
2022-12-05T20:39:03.442Z,101229.31
2022-12-05T20:41:30.956Z,101234.66
2022-12-05T20:43:59.499Z,101235.47
2022-12-05T20:46:27.682Z,101227.63
2022-12-05T20:48:56.289Z,101231.25
2022-12-05T20:51:25.990Z,101230.41
2022-12-05T20:53:53.425Z,101228.47
2022-12-05T20:56:21.556Z,101226.91
2022-12-05T20:58:50.308Z,101232.09
2022-12-05T21:01:18.483Z,101232.94
2022-12-05T21:03:46.580Z,101235.72
2022-12-05T21:06:14.827Z,101229.56
2022-12-05T21:08:43.524Z,101219.50
2022-12-05T21:11:11.051Z,101216.84
2022-12-05T21:13:38.579Z,101223.16
2022-12-05T21:16:07.232Z,101219.03
2022-12-05T21:18:34.672Z,101224.81
2022-12-05T21:21:03.164Z,101223.03
2022-12-05T21:23:30.649Z,101226.66
2022-12-05T21:26:01.720Z,101224.47
2022-12-05T21:28:30.093Z,101216.94
2022-12-05T21:30:57.586Z,101215.97
2022-12-05T21:33:28.801Z,101214.03
2022-12-05T21:35:56.561Z,101209.41
2022-12-05T21:38:23.969Z,101206.16
2022-12-05T21:40:52.352Z,101209.53
2022-12-05T21:43:21.102Z,101210.38
2022-12-05T21:45:52.937Z,101205.06
2022-12-05T21:48:20.844Z,101206.03
2022-12-05T21:50:48.286Z,101216.69
2022-12-05T21:53:15.748Z,101217.66
2022-12-05T21:55:45.181Z,101209.78
2022-12-05T21:58:12.596Z,101214.03
2022-12-05T22:00:41.305Z,101207.00
2022-12-05T22:03:08.781Z,101222.84
2022-12-05T22:05:36.240Z,101226.63
2022-12-05T22:08:06.698Z,101224.09
2022-12-05T22:10:34.341Z,101220.31
2022-12-05T22:13:01.766Z,101224.81
2022-12-05T22:15:29.216Z,101215.00
2022-12-05T22:17:57.921Z,101214.28
2022-12-05T22:20:25.355Z,101209.19
2022-12-05T22:22:52.768Z,101202.56
2022-12-05T22:25:20.205Z,101204.63
2022-12-05T22:27:47.608Z,101200.63
2022-12-05T22:30:15.056Z,101198.25
2022-12-05T22:32:42.462Z,101209.03
2022-12-05T22:35:11.365Z,101205.66
2022-12-05T22:37:38.815Z,101200.31
2022-12-05T22:40:07.639Z,101201.75
2022-12-05T22:42:35.059Z,101203.38
2022-12-05T22:45:02.520Z,101197.28
2022-12-05T22:47:30.003Z,101188.09
2022-12-05T22:49:57.761Z,101183.94
2022-12-05T22:52:27.755Z,101170.97
2022-12-05T22:54:55.440Z,101170.72
2022-12-05T22:57:22.981Z,101166.13
2022-12-05T22:59:50.430Z,101166.00
2022-12-05T23:02:17.855Z,101160.91
2022-12-05T23:04:45.272Z,101166.25
2022-12-05T23:07:12.720Z,101155.13
2022-12-05T23:09:41.393Z,101160.19
2022-12-05T23:12:08.854Z,101154.03
2022-12-05T23:14:36.283Z,101149.66
2022-12-05T23:17:03.710Z,101153.03
2022-12-05T23:19:31.122Z,101150.91
2022-12-05T23:21:58.546Z,101146.53
2022-12-05T23:24:25.961Z,101148.97
2022-12-05T23:26:54.921Z,101158.63
2022-12-05T23:29:22.316Z,101158.63
2022-12-05T23:31:49.760Z,101163.81
2022-12-05T23:34:17.340Z,101155.50
2022-12-05T23:36:44.745Z,101152.72
2022-12-05T23:39:12.181Z,101148.88
2022-12-05T23:41:39.612Z,101150.81
2022-12-05T23:44:08.307Z,101146.22
2022-12-05T23:46:36.027Z,101144.53
2022-12-05T23:49:03.843Z,101140.06
2022-12-05T23:51:31.401Z,101139.94
2022-12-05T23:53:59.681Z,101141.88
2022-12-05T23:56:28.570Z,101134.47
2022-12-05T23:58:56.268Z,101133.72
